createdAt,value
2022-09-06T00:01:34.318Z,2.80
2022-09-06T00:04:00.711Z,2.90
2022-09-06T00:06:27.112Z,3.17
2022-09-06T00:08:53.497Z,2.93
2022-09-06T00:11:20.135Z,2.90
2022-09-06T00:13:47.360Z,2.80
2022-09-06T00:16:26.346Z,2.73
2022-09-06T00:18:56.141Z,2.37
2022-09-06T00:21:28.044Z,2.90
2022-09-06T00:23:54.855Z,3.07
2022-09-06T00:26:22.931Z,2.90
2022-09-06T00:28:49.877Z,3.50
2022-09-06T00:31:21.703Z,3.13
2022-09-06T00:33:48.701Z,3.20
2022-09-06T00:36:15.557Z,3.13
2022-09-06T00:38:42.538Z,3.60
2022-09-06T00:41:11.334Z,3.60
2022-09-06T00:43:38.449Z,5.10
2022-09-06T00:46:06.745Z,4.87
2022-09-06T00:48:34.113Z,4.37
2022-09-06T00:51:03.992Z,5.20
2022-09-06T00:53:32.019Z,5.00
2022-09-06T00:55:59.021Z,4.90
2022-09-06T00:58:26.919Z,4.93
2022-09-06T01:00:53.501Z,5.17
2022-09-06T01:03:22.980Z,4.83
2022-09-06T01:06:17.400Z,5.67
2022-09-06T01:09:02.782Z,5.00
2022-09-06T01:11:48.337Z,5.70
2022-09-06T01:14:45.681Z,5.13
2022-09-06T01:17:41.881Z,5.70
2022-09-06T01:20:29.384Z,6.03
2022-09-06T01:23:34.760Z,5.30
2022-09-06T01:26:22.969Z,5.27
2022-09-06T01:28:51.672Z,6.43
2022-09-06T01:31:46.590Z,5.47
2022-09-06T01:34:26.478Z,5.53
2022-09-06T01:37:16.752Z,5.40
2022-09-06T01:39:43.317Z,5.60
2022-09-06T01:42:14.538Z,5.83
2022-09-06T01:44:47.400Z,6.07
2022-09-06T01:47:35.356Z,6.13
2022-09-06T01:50:23.953Z,6.63
2022-09-06T01:53:24.389Z,7.30
2022-09-06T01:56:21.661Z,7.23
2022-09-06T01:59:01.677Z,7.17
2022-09-06T02:01:51.765Z,6.73
2022-09-06T02:04:26.783Z,6.43
2022-09-06T02:07:00.123Z,6.50
2022-09-06T02:09:31.153Z,7.00
2022-09-06T02:12:01.058Z,7.03
2022-09-06T02:14:36.755Z,6.40
2022-09-06T02:17:05.730Z,6.23
2022-09-06T02:19:54.901Z,7.53
2022-09-06T02:22:26.028Z,7.27
2022-09-06T02:24:55.237Z,7.00
2022-09-06T02:27:21.716Z,7.23
2022-09-06T02:29:48.328Z,6.57
2022-09-06T02:32:20.407Z,6.80
2022-09-06T02:34:47.513Z,7.37
2022-09-06T02:37:16.348Z,7.90
2022-09-06T02:39:42.822Z,8.07
2022-09-06T02:42:11.759Z,8.17
2022-09-06T02:44:38.277Z,7.13
2022-09-06T02:47:05.667Z,8.40
2022-09-06T02:49:32.279Z,8.20
2022-09-06T02:51:58.753Z,7.90
2022-09-06T02:54:25.172Z,7.90
2022-09-06T02:56:52.368Z,8.50
2022-09-06T02:59:19.061Z,8.63
2022-09-06T03:01:45.524Z,8.07
2022-09-06T03:04:12.201Z,7.63
2022-09-06T03:06:38.624Z,7.60
2022-09-06T03:09:04.991Z,8.70
2022-09-06T03:11:31.370Z,8.00
2022-09-06T03:13:57.743Z,7.43
2022-09-06T03:16:24.145Z,7.60
2022-09-06T03:18:50.592Z,7.67
2022-09-06T03:21:16.948Z,8.90
2022-09-06T03:23:43.389Z,8.23
2022-09-06T03:26:09.742Z,8.50
2022-09-06T03:28:36.169Z,8.57
2022-09-06T03:31:03.562Z,7.63
2022-09-06T03:33:30.928Z,8.00
2022-09-06T03:36:00.405Z,7.67
2022-09-06T03:38:28.347Z,7.40
2022-09-06T03:40:55.471Z,7.20
2022-09-06T03:43:23.898Z,8.90
2022-09-06T03:45:53.670Z,8.03
2022-09-06T03:48:21.569Z,8.10
2022-09-06T03:50:54.198Z,7.70
2022-09-06T03:53:21.661Z,7.17
2022-09-06T03:55:49.985Z,7.40
2022-09-06T03:58:18.588Z,7.50
2022-09-06T04:00:45.329Z,7.77
2022-09-06T04:03:12.188Z,7.60
2022-09-06T04:05:38.592Z,7.00
2022-09-06T04:08:05.884Z,6.90
2022-09-06T04:10:32.940Z,6.73
2022-09-06T04:12:59.273Z,6.30
2022-09-06T04:15:25.617Z,6.93
2022-09-06T04:17:52.048Z,7.47
2022-09-06T04:20:18.581Z,6.27
2022-09-06T04:22:44.929Z,6.83
2022-09-06T04:25:11.317Z,7.67
2022-09-06T04:27:37.714Z,7.40
2022-09-06T04:30:04.549Z,6.97
2022-09-06T04:32:32.582Z,6.57
2022-09-06T04:34:58.950Z,6.50
2022-09-06T04:37:25.304Z,6.87
2022-09-06T04:39:51.729Z,6.43
2022-09-06T04:42:18.158Z,7.07
2022-09-06T04:44:44.512Z,6.57
2022-09-06T04:47:15.666Z,7.07
2022-09-06T04:49:42.683Z,6.30
2022-09-06T04:52:09.998Z,6.63
2022-09-06T04:54:36.497Z,6.90
2022-09-06T04:57:03.156Z,6.43
2022-09-06T04:59:29.585Z,6.80
2022-09-06T05:01:56.021Z,7.07
2022-09-06T05:04:22.499Z,6.60
2022-09-06T05:06:49.223Z,7.20
2022-09-06T05:09:15.795Z,6.90
2022-09-06T05:11:42.200Z,6.93
2022-09-06T05:14:08.577Z,7.50
2022-09-06T05:16:35.107Z,7.77
2022-09-06T05:19:01.545Z,7.17
2022-09-06T05:21:27.864Z,6.93
2022-09-06T05:23:58.377Z,7.30
2022-09-06T05:26:25.122Z,7.30
2022-09-06T05:28:51.547Z,7.53
2022-09-06T05:31:27.201Z,7.37
2022-09-06T05:33:54.707Z,7.37
2022-09-06T05:36:23.356Z,6.10
2022-09-06T05:38:54.239Z,7.10
2022-09-06T05:41:21.833Z,6.70
2022-09-06T05:43:48.565Z,7.20
2022-09-06T05:46:15.990Z,6.20
2022-09-06T05:48:42.838Z,7.23
2022-09-06T05:51:13.325Z,6.60
2022-09-06T05:53:42.948Z,7.20
2022-09-06T05:56:11.048Z,6.93
2022-09-06T05:58:38.839Z,6.90
2022-09-06T06:01:22.624Z,6.40
2022-09-06T06:03:53.991Z,6.20
2022-09-06T06:06:21.829Z,6.13
2022-09-06T06:08:48.424Z,6.20
2022-09-06T06:11:15.235Z,6.00
2022-09-06T06:13:43.179Z,5.87
2022-09-06T06:16:12.162Z,6.33
2022-09-06T06:18:39.197Z,6.43
2022-09-06T06:21:16.027Z,5.93
2022-09-06T06:23:44.627Z,5.93
2022-09-06T06:26:12.669Z,5.80
2022-09-06T06:28:39.893Z,6.70
2022-09-06T06:31:08.787Z,6.50
2022-09-06T06:33:36.335Z,6.13
2022-09-06T06:36:13.266Z,6.80
2022-09-06T06:38:42.260Z,6.40
2022-09-06T06:41:10.724Z,6.10
2022-09-06T06:43:37.874Z,6.17
2022-09-06T06:46:05.900Z,5.73
2022-09-06T06:48:32.618Z,5.70
2022-09-06T06:50:59.025Z,6.00
2022-09-06T06:53:25.520Z,5.83
2022-09-06T06:55:51.951Z,5.13
2022-09-06T06:58:18.861Z,4.80
2022-09-06T07:00:45.582Z,5.67
2022-09-06T07:03:12.622Z,6.00
2022-09-06T07:08:26.807Z,5.07
2022-09-06T07:10:53.226Z,6.03
2022-09-06T07:13:19.653Z,4.90
2022-09-06T07:15:46.012Z,5.00
2022-09-06T07:18:15.794Z,5.43
2022-09-06T07:26:17.015Z,4.90
2022-09-06T07:28:43.632Z,5.17
2022-09-06T07:33:57.764Z,4.53
2022-09-06T07:36:24.145Z,4.80
2022-09-06T07:38:50.842Z,4.80
2022-09-06T07:41:18.339Z,4.03
2022-09-06T07:43:45.665Z,3.93
2022-09-06T07:46:15.146Z,4.33
2022-09-06T07:48:43.088Z,3.53
2022-09-06T07:51:16.201Z,3.63
2022-09-06T07:53:45.033Z,3.80
2022-09-06T07:56:12.766Z,4.20
2022-09-06T07:58:40.589Z,3.70
2022-09-06T08:01:30.549Z,4.13
2022-09-06T08:04:08.549Z,3.47
2022-09-06T08:09:25.021Z,3.17
2022-09-06T08:11:52.569Z,3.10
2022-09-06T08:14:18.996Z,3.07
2022-09-06T08:16:45.368Z,3.20
2022-09-06T08:19:12.368Z,2.73
2022-09-06T08:21:39.124Z,2.97
2022-09-06T08:24:07.854Z,2.83
2022-09-06T08:26:36.510Z,2.40
2022-09-06T08:29:06.716Z,2.70
2022-09-06T08:31:35.013Z,2.27
2022-09-06T08:34:01.561Z,2.60
2022-09-06T08:36:31.340Z,2.10
2022-09-06T08:39:02.086Z,2.23
2022-09-06T08:41:45.504Z,2.30
2022-09-06T08:47:07.370Z,2.23
2022-09-06T08:49:37.549Z,2.03
2022-09-06T08:52:41.765Z,1.90
2022-09-06T08:55:57.957Z,2.50
2022-09-06T08:59:02.154Z,1.90
2022-09-06T09:01:52.247Z,2.43
2022-09-06T09:04:24.388Z,2.17
2022-09-06T09:06:57.937Z,1.83
2022-09-06T09:09:28.009Z,2.20
2022-09-06T09:11:55.888Z,2.00
2022-09-06T09:14:29.350Z,2.33
2022-09-06T09:17:03.329Z,1.67
2022-09-06T09:19:33.357Z,2.23
2022-09-06T09:21:59.721Z,1.80
2022-09-06T09:24:26.107Z,1.93
2022-09-06T09:27:08.664Z,2.60
2022-09-06T09:32:44.730Z,1.57
2022-09-06T09:35:29.946Z,2.00
2022-09-06T09:38:20.654Z,1.80
2022-09-06T09:40:54.268Z,1.93
2022-09-06T09:43:22.346Z,1.93
2022-09-06T09:46:24.055Z,2.43
2022-09-06T09:49:07.377Z,1.80
2022-09-06T09:51:44.216Z,1.73
2022-09-06T09:54:12.904Z,1.70
2022-09-06T09:56:52.880Z,1.83
2022-09-06T09:59:34.622Z,2.17
2022-09-06T10:02:03.725Z,2.03
2022-09-06T10:07:14.850Z,2.03
2022-09-06T10:09:43.862Z,2.00
2022-09-06T10:12:17.528Z,2.03
2022-09-06T10:14:45.976Z,2.23
2022-09-06T10:17:37.177Z,2.13
2022-09-06T10:20:08.447Z,2.20
2022-09-06T10:23:04.636Z,2.60
2022-09-06T10:25:37.901Z,2.30
2022-09-06T10:28:36.316Z,2.20
2022-09-06T10:31:36.319Z,2.60
2022-09-06T10:34:11.614Z,1.97
2022-09-06T10:36:40.819Z,2.13
2022-09-06T10:39:45.396Z,2.20
2022-09-06T10:42:39.044Z,2.07
2022-09-06T10:45:08.072Z,2.37
2022-09-06T10:47:52.945Z,2.60
2022-09-06T10:50:19.864Z,3.10
2022-09-06T10:52:48.576Z,2.30
2022-09-06T10:55:18.426Z,2.53
2022-09-06T11:00:47.254Z,2.20
2022-09-06T11:06:12.695Z,2.60
2022-09-06T11:08:49.033Z,2.30
2022-09-06T11:11:23.084Z,2.30
2022-09-06T11:13:49.537Z,2.57
2022-09-06T11:16:25.248Z,2.60
2022-09-06T11:19:04.609Z,3.20
2022-09-06T11:21:50.548Z,3.03
2022-09-06T11:24:36.673Z,2.63
2022-09-06T11:27:12.505Z,2.80
2022-09-06T11:29:45.113Z,2.50
2022-09-06T11:32:30.386Z,3.10
2022-09-06T11:34:59.264Z,3.13
2022-09-06T11:37:30.930Z,2.83
2022-09-06T11:40:28.730Z,2.70
2022-09-06T11:42:55.411Z,3.40
2022-09-06T11:45:44.402Z,3.00
2022-09-06T11:48:35.237Z,3.10
2022-09-06T11:51:11.141Z,2.93
2022-09-06T11:53:49.521Z,2.93
2022-09-06T11:56:33.203Z,3.00
2022-09-06T11:59:28.700Z,3.50
2022-09-06T12:01:54.994Z,3.33
2022-09-06T12:04:23.121Z,3.70
2022-09-06T12:07:11.577Z,3.47
2022-09-06T12:09:40.878Z,2.73
2022-09-06T12:12:09.958Z,3.10
2022-09-06T12:14:40.709Z,3.30
2022-09-06T12:17:07.535Z,3.70
2022-09-06T12:19:44.561Z,3.40
2022-09-06T12:22:41.273Z,3.60
2022-09-06T12:25:41.003Z,3.23
2022-09-06T12:28:19.809Z,3.20
2022-09-06T12:30:47.958Z,3.53
2022-09-06T12:33:22.056Z,3.43
2022-09-06T12:38:25.707Z,3.20
2022-09-06T12:40:58.121Z,3.13
2022-09-06T12:43:25.069Z,3.73
2022-09-06T12:45:52.819Z,3.50
2022-09-06T12:48:30.835Z,3.50
2022-09-06T12:51:06.055Z,3.53
2022-09-06T12:53:34.367Z,3.37
2022-09-06T12:56:05.371Z,3.30
2022-09-06T12:58:32.421Z,3.23
2022-09-06T13:01:09.024Z,3.77
2022-09-06T13:03:55.284Z,3.43
2022-09-06T13:06:27.241Z,3.30
2022-09-06T13:08:57.105Z,3.30
2022-09-06T13:11:28.064Z,2.87
2022-09-06T13:13:55.252Z,2.87
2022-09-06T13:16:27.259Z,3.70
2022-09-06T13:18:54.197Z,3.20
2022-09-06T13:21:32.836Z,3.23
2022-09-06T13:23:59.687Z,3.20
2022-09-06T13:26:38.643Z,2.83
2022-09-06T13:29:17.151Z,3.40
2022-09-06T13:31:48.406Z,3.30
2022-09-06T13:34:31.652Z,2.83
2022-09-06T13:37:05.290Z,3.20
2022-09-06T13:39:34.892Z,3.00
2022-09-06T13:42:07.396Z,3.43
2022-09-06T13:44:36.097Z,2.93
2022-09-06T13:47:03.364Z,3.20
2022-09-06T13:49:30.337Z,3.20
2022-09-06T13:52:02.257Z,2.90
2022-09-06T13:54:30.120Z,2.90
2022-09-06T13:56:56.837Z,3.63
2022-09-06T13:59:24.673Z,3.40
2022-09-06T14:02:12.930Z,2.87
2022-09-06T14:04:39.320Z,3.30
2022-09-06T14:07:05.759Z,3.00
2022-09-06T14:09:32.610Z,2.70
2022-09-06T14:11:59.296Z,2.90
2022-09-06T14:14:25.723Z,2.73
2022-09-06T14:16:52.820Z,2.80
2022-09-06T14:19:19.311Z,2.50
2022-09-06T14:21:45.709Z,3.13
2022-09-06T14:24:12.289Z,3.13
2022-09-06T14:26:38.750Z,2.70
2022-09-06T14:29:05.309Z,2.97
2022-09-06T14:31:34.671Z,3.23
2022-09-06T14:34:02.252Z,3.43
2022-09-06T14:36:30.329Z,3.00
2022-09-06T14:38:58.360Z,2.60
2022-09-06T14:41:25.692Z,2.80
2022-09-06T14:43:55.013Z,3.20
2022-09-06T14:46:24.178Z,3.27
2022-09-06T14:49:04.430Z,3.13
2022-09-06T14:51:30.885Z,2.93
2022-09-06T14:54:01.981Z,2.93
2022-09-06T14:56:28.451Z,2.83
2022-09-06T14:58:57.191Z,2.70
2022-09-06T15:01:31.039Z,2.60
2022-09-06T15:04:05.068Z,3.33
2022-09-06T15:06:33.589Z,2.93
2022-09-06T15:09:00.421Z,2.97
2022-09-06T15:11:38.515Z,2.87
2022-09-06T15:14:26.946Z,3.03
2022-09-06T15:16:56.621Z,3.40
2022-09-06T15:19:24.562Z,3.10
2022-09-06T15:21:50.958Z,2.90
2022-09-06T15:24:17.424Z,2.90
2022-09-06T15:26:43.875Z,3.03
2022-09-06T15:29:11.710Z,2.80
2022-09-06T15:31:38.712Z,3.10
2022-09-06T15:34:05.996Z,3.17
2022-09-06T15:36:33.270Z,3.13
2022-09-06T15:39:01.056Z,3.00
2022-09-06T15:41:32.289Z,2.87
2022-09-06T15:44:01.474Z,2.77
2022-09-06T15:46:48.150Z,2.83
2022-09-06T15:49:18.227Z,2.73
2022-09-06T15:51:44.947Z,2.63
2022-09-06T15:54:13.902Z,2.53
2022-09-06T15:56:41.379Z,2.67
2022-09-06T15:59:08.126Z,2.77
2022-09-06T16:01:35.113Z,2.63
2022-09-06T16:04:05.954Z,2.97
2022-09-06T16:06:39.461Z,2.60
2022-09-06T16:09:09.261Z,2.27
2022-09-06T16:11:36.731Z,2.60
2022-09-06T16:14:09.514Z,2.80
2022-09-06T16:16:36.482Z,2.93
2022-09-06T16:19:03.636Z,3.13
2022-09-06T16:21:32.356Z,2.90
2022-09-06T16:24:01.333Z,3.10
2022-09-06T16:26:32.101Z,2.80
2022-09-06T16:28:58.954Z,2.50
2022-09-06T16:31:26.905Z,2.33
2022-09-06T16:33:53.773Z,2.40
2022-09-06T16:36:21.669Z,2.60
2022-09-06T16:38:48.736Z,2.87
2022-09-06T16:41:21.160Z,2.90
2022-09-06T16:43:52.525Z,2.70
2022-09-06T16:46:20.895Z,2.50
2022-09-06T16:48:55.886Z,2.70
2022-09-06T16:51:24.570Z,2.50
2022-09-06T16:53:52.064Z,2.57
2022-09-06T16:56:21.437Z,3.03
2022-09-06T16:58:54.320Z,2.60
2022-09-06T17:01:21.507Z,2.97
2022-09-06T17:03:48.070Z,2.47
2022-09-06T17:06:14.553Z,2.40
2022-09-06T17:08:41.024Z,2.70
2022-09-06T17:11:14.665Z,2.83
2022-09-06T17:13:42.169Z,2.97
2022-09-06T17:16:27.426Z,2.90
2022-09-06T17:18:54.206Z,2.90
2022-09-06T17:21:22.342Z,2.60
2022-09-06T17:23:49.909Z,2.87
2022-09-06T17:26:21.089Z,2.70
2022-09-06T17:28:49.307Z,3.03
2022-09-06T17:31:19.020Z,2.90
2022-09-06T17:33:48.351Z,2.90
2022-09-06T17:36:18.166Z,3.03
2022-09-06T17:38:51.060Z,3.60
2022-09-06T17:41:28.208Z,2.90
2022-09-06T17:43:55.310Z,2.60
2022-09-06T17:46:27.906Z,2.93
2022-09-06T17:48:56.128Z,3.00
2022-09-06T17:51:23.116Z,3.03
2022-09-06T17:53:49.573Z,3.53
2022-09-06T17:56:17.803Z,3.10
2022-09-06T17:58:52.876Z,5.13
2022-09-06T18:01:19.855Z,5.00
2022-09-06T18:03:47.093Z,4.40
2022-09-06T18:06:15.717Z,4.70
2022-09-06T18:08:43.889Z,5.83
2022-09-06T18:11:22.563Z,7.10
2022-09-06T18:13:58.895Z,6.77
2022-09-06T18:16:26.555Z,6.60
2022-09-06T18:18:56.059Z,5.70
2022-09-06T18:21:23.674Z,4.63
2022-09-06T18:23:50.873Z,3.97
2022-09-06T18:26:18.044Z,3.47
2022-09-06T18:28:44.832Z,3.90
2022-09-06T18:31:16.322Z,3.27
2022-09-06T18:33:43.684Z,2.90
2022-09-06T18:36:12.992Z,3.37
2022-09-06T18:38:40.376Z,2.70
2022-09-06T18:41:08.604Z,2.83
2022-09-06T18:43:40.349Z,3.00
2022-09-06T18:46:09.873Z,2.97
2022-09-06T18:48:37.377Z,2.93
2022-09-06T18:51:14.984Z,2.70
2022-09-06T18:53:44.820Z,2.90
2022-09-06T18:56:13.545Z,3.40
2022-09-06T18:58:41.660Z,3.00
2022-09-06T19:01:14.085Z,2.87
2022-09-06T19:03:42.023Z,3.13
2022-09-06T19:06:18.082Z,3.33
2022-09-06T19:08:46.655Z,3.60
2022-09-06T19:11:17.119Z,3.10
2022-09-06T19:13:45.587Z,3.40
2022-09-06T19:16:13.927Z,3.43
2022-09-06T19:18:41.055Z,3.10
2022-09-06T19:21:16.915Z,3.17
2022-09-06T19:23:48.420Z,3.27
2022-09-06T19:26:20.063Z,3.27
2022-09-06T19:28:51.830Z,3.70
2022-09-06T19:31:19.181Z,3.40
2022-09-06T19:33:48.073Z,3.10
2022-09-06T19:36:15.781Z,3.20
2022-09-06T19:39:01.907Z,3.17
2022-09-06T19:41:31.032Z,3.30
2022-09-06T19:43:58.851Z,3.27
2022-09-06T19:46:26.777Z,3.70
2022-09-06T19:48:55.854Z,3.40
2022-09-06T19:51:23.307Z,3.10
2022-09-06T19:53:57.369Z,3.13
2022-09-06T19:56:26.457Z,3.00
2022-09-06T19:59:00.876Z,3.30
2022-09-06T20:01:29.550Z,3.37
2022-09-06T20:03:56.314Z,3.47
2022-09-06T20:06:22.708Z,3.00
2022-09-06T20:08:51.599Z,2.90
2022-09-06T20:11:19.662Z,2.90
2022-09-06T20:13:46.386Z,3.13
2022-09-06T20:16:13.814Z,3.17
2022-09-06T20:18:40.499Z,3.07
2022-09-06T20:21:07.496Z,2.80
2022-09-06T20:23:34.909Z,2.90
2022-09-06T20:26:02.766Z,3.00
2022-09-06T20:28:29.584Z,2.97
2022-09-06T20:31:07.709Z,3.30
2022-09-06T20:33:34.933Z,2.87
2022-09-06T20:36:04.333Z,2.80
2022-09-06T20:38:32.347Z,3.13
2022-09-06T20:41:07.565Z,2.60
2022-09-06T20:43:36.475Z,3.10
2022-09-06T20:46:14.393Z,3.20
2022-09-06T20:48:44.955Z,2.57
2022-09-06T20:51:15.500Z,3.20
2022-09-06T20:53:42.554Z,2.87
2022-09-06T20:56:17.245Z,3.10
2022-09-06T20:58:57.404Z,2.80
2022-09-06T21:01:25.696Z,2.90
2022-09-06T21:03:54.553Z,2.03
2022-09-06T21:06:22.465Z,2.53
2022-09-06T21:08:49.699Z,2.97
2022-09-06T21:11:16.588Z,3.00
2022-09-06T21:13:43.666Z,2.70
2022-09-06T21:16:10.326Z,3.13
2022-09-06T21:18:36.792Z,3.30
2022-09-06T21:21:06.636Z,3.40
2022-09-06T21:23:35.054Z,4.20
2022-09-06T21:26:06.969Z,3.47
2022-09-06T21:28:35.705Z,3.43
2022-09-06T21:31:05.893Z,3.60
2022-09-06T21:33:33.165Z,3.43
2022-09-06T21:36:06.852Z,3.30
2022-09-06T21:38:34.760Z,3.70
2022-09-06T21:41:01.906Z,3.27
2022-09-06T21:43:28.466Z,3.10
2022-09-06T21:45:54.997Z,3.20
2022-09-06T21:48:21.494Z,3.10
2022-09-06T21:50:48.367Z,3.07
2022-09-06T21:53:15.393Z,3.20
2022-09-06T21:55:42.033Z,2.53
2022-09-06T21:58:08.717Z,3.07
2022-09-06T22:00:35.532Z,2.70
2022-09-06T22:03:03.105Z,2.70
2022-09-06T22:05:29.524Z,2.40
2022-09-06T22:07:55.921Z,2.77
2022-09-06T22:10:25.988Z,2.70
2022-09-06T22:12:52.922Z,2.20
2022-09-06T22:15:21.491Z,2.40
2022-09-06T22:17:48.620Z,2.00
2022-09-06T22:20:15.130Z,2.40
2022-09-06T22:22:43.885Z,2.60
2022-09-06T22:25:10.232Z,2.40
2022-09-06T22:27:37.199Z,2.40
2022-09-06T22:30:04.373Z,1.97
2022-09-06T22:32:30.773Z,2.50
2022-09-06T22:34:57.136Z,2.30
2022-09-06T22:37:23.490Z,2.50
2022-09-06T22:39:50.621Z,1.97
2022-09-06T22:42:17.056Z,2.10
2022-09-06T22:44:43.442Z,2.33
2022-09-06T22:47:09.858Z,2.50
2022-09-06T22:49:36.241Z,2.30
2022-09-06T22:52:02.705Z,2.47
2022-09-06T22:54:29.054Z,2.47
2022-09-06T22:56:55.492Z,2.60
2022-09-06T22:59:21.899Z,2.80
2022-09-06T23:01:48.244Z,2.60
2022-09-06T23:04:14.620Z,2.50
2022-09-06T23:06:41.106Z,2.30
2022-09-06T23:09:07.509Z,2.23
2022-09-06T23:11:33.990Z,2.50
2022-09-06T23:14:00.701Z,2.20
2022-09-06T23:16:28.031Z,2.37
2022-09-06T23:18:55.068Z,2.50
2022-09-06T23:21:24.709Z,2.60
2022-09-06T23:23:52.667Z,2.97
2022-09-06T23:26:22.896Z,2.63
2022-09-06T23:28:56.734Z,2.47
2022-09-06T23:31:28.555Z,2.77
2022-09-06T23:33:57.142Z,1.70
2022-09-06T23:36:24.247Z,2.30
2022-09-06T23:38:50.753Z,2.30
2022-09-06T23:41:17.620Z,2.00
2022-09-06T23:43:44.686Z,2.47
2022-09-06T23:46:13.232Z,2.87
2022-09-06T23:48:39.660Z,2.47
2022-09-06T23:51:06.835Z,2.60
2022-09-06T23:53:33.334Z,2.27
2022-09-06T23:55:59.734Z,3.07
2022-09-06T23:58:26.533Z,2.40
